sensor_id;sensor_type;location;lat;lon;timestamp;P1;durP1;ratioP1;P2;durP2;ratioP2
66298;SDS011;53098;47.658;8.578;2023-07-24T00:01:53;10.30;;;4.72;;
66298;SDS011;53098;47.658;8.578;2023-07-24T00:04:18;15.18;;;5.40;;
66298;SDS011;53098;47.658;8.578;2023-07-24T00:06:44;13.52;;;5.68;;
66298;SDS011;53098;47.658;8.578;2023-07-24T00:09:09;12.88;;;5.18;;
66298;SDS011;53098;47.658;8.578;2023-07-24T00:11:34;12.00;;;6.10;;
66298;SDS011;53098;47.658;8.578;2023-07-24T00:14:00;13.05;;;5.25;;
66298;SDS011;53098;47.658;8.578;2023-07-24T00:16:25;12.80;;;5.85;;
66298;SDS011;53098;47.658;8.578;2023-07-24T00:18:51;10.52;;;5.85;;
66298;SDS011;53098;47.658;8.578;2023-07-24T00:21:16;12.68;;;5.60;;
66298;SDS011;53098;47.658;8.578;2023-07-24T00:23:41;11.88;;;5.38;;
66298;SDS011;53098;47.658;8.578;2023-07-24T00:26:07;12.98;;;5.88;;
66298;SDS011;53098;47.658;8.578;2023-07-24T00:28:33;13.02;;;5.40;;
66298;SDS011;53098;47.658;8.578;2023-07-24T00:30:58;10.77;;;4.93;;
66298;SDS011;53098;47.658;8.578;2023-07-24T00:33:23;12.20;;;5.50;;
66298;SDS011;53098;47.658;8.578;2023-07-24T00:35:49;12.82;;;6.07;;
66298;SDS011;53098;47.658;8.578;2023-07-24T00:38:14;14.38;;;5.85;;
66298;SDS011;53098;47.658;8.578;2023-07-24T00:40:40;16.45;;;6.70;;
66298;SDS011;53098;47.658;8.578;2023-07-24T00:43:05;14.20;;;6.20;;
66298;SDS011;53098;47.658;8.578;2023-07-24T00:45:31;14.82;;;6.30;;
66298;SDS011;53098;47.658;8.578;2023-07-24T00:47:57;16.40;;;6.63;;
66298;SDS011;53098;47.658;8.578;2023-07-24T00:50:24;15.82;;;6.45;;
66298;SDS011;53098;47.658;8.578;2023-07-24T00:52:50;16.15;;;6.35;;
66298;SDS011;53098;47.658;8.578;2023-07-24T00:55:16;15.30;;;6.40;;
66298;SDS011;53098;47.658;8.578;2023-07-24T00:57:42;13.88;;;6.25;;
66298;SDS011;53098;47.658;8.578;2023-07-24T01:00:09;16.65;;;6.30;;
66298;SDS011;53098;47.658;8.578;2023-07-24T01:02:35;15.10;;;6.05;;
66298;SDS011;53098;47.658;8.578;2023-07-24T01:05:01;14.57;;;5.18;;
66298;SDS011;53098;47.658;8.578;2023-07-24T01:07:26;12.18;;;5.50;;
66298;SDS011;53098;47.658;8.578;2023-07-24T01:09:52;12.27;;;5.25;;
66298;SDS011;53098;47.658;8.578;2023-07-24T01:14:58;14.85;;;6.25;;
66298;SDS011;53098;47.658;8.578;2023-07-24T01:17:39;14.13;;;5.68;;
66298;SDS011;53098;47.658;8.578;2023-07-24T01:20:11;14.90;;;6.18;;
66298;SDS011;53098;47.658;8.578;2023-07-24T01:22:46;14.38;;;6.00;;
66298;SDS011;53098;47.658;8.578;2023-07-24T01:27:57;17.40;;;6.90;;
66298;SDS011;53098;47.658;8.578;2023-07-24T01:30:23;13.82;;;6.00;;
66298;SDS011;53098;47.658;8.578;2023-07-24T01:32:48;13.68;;;6.43;;
66298;SDS011;53098;47.658;8.578;2023-07-24T01:35:14;12.65;;;6.40;;
66298;SDS011;53098;47.658;8.578;2023-07-24T01:37:40;14.80;;;5.65;;
66298;SDS011;53098;47.658;8.578;2023-07-24T01:40:07;14.95;;;5.75;;
66298;SDS011;53098;47.658;8.578;2023-07-24T01:42:34;13.02;;;6.53;;
66298;SDS011;53098;47.658;8.578;2023-07-24T01:45:01;12.90;;;5.82;;
66298;SDS011;53098;47.658;8.578;2023-07-24T01:47:28;13.43;;;5.88;;
66298;SDS011;53098;47.658;8.578;2023-07-24T01:49:53;12.65;;;5.53;;
66298;SDS011;53098;47.658;8.578;2023-07-24T01:52:19;13.55;;;5.45;;
66298;SDS011;53098;47.658;8.578;2023-07-24T01:54:44;12.85;;;5.45;;
66298;SDS011;53098;47.658;8.578;2023-07-24T01:57:10;11.57;;;5.45;;
66298;SDS011;53098;47.658;8.578;2023-07-24T01:59:35;14.80;;;5.85;;
66298;SDS011;53098;47.658;8.578;2023-07-24T02:02:01;13.88;;;5.78;;
66298;SDS011;53098;47.658;8.578;2023-07-24T02:04:26;11.98;;;5.40;;
66298;SDS011;53098;47.658;8.578;2023-07-24T02:06:51;13.80;;;5.85;;
66298;SDS011;53098;47.658;8.578;2023-07-24T02:09:17;11.30;;;5.00;;
66298;SDS011;53098;47.658;8.578;2023-07-24T02:11:43;14.90;;;5.78;;
66298;SDS011;53098;47.658;8.578;2023-07-24T02:14:09;13.32;;;5.40;;
66298;SDS011;53098;47.658;8.578;2023-07-24T02:16:36;12.85;;;5.32;;
66298;SDS011;53098;47.658;8.578;2023-07-24T02:19:02;14.38;;;4.97;;
66298;SDS011;53098;47.658;8.578;2023-07-24T02:21:27;12.70;;;5.53;;
66298;SDS011;53098;47.658;8.578;2023-07-24T02:23:53;11.73;;;5.80;;
66298;SDS011;53098;47.658;8.578;2023-07-24T02:26:18;14.15;;;5.85;;
66298;SDS011;53098;47.658;8.578;2023-07-24T02:28:43;13.23;;;5.63;;
66298;SDS011;53098;47.658;8.578;2023-07-24T02:31:09;14.98;;;5.78;;
66298;SDS011;53098;47.658;8.578;2023-07-24T02:33:34;13.77;;;5.30;;
66298;SDS011;53098;47.658;8.578;2023-07-24T02:36:00;12.50;;;5.45;;
66298;SDS011;53098;47.658;8.578;2023-07-24T02:38:26;10.70;;;5.32;;
66298;SDS011;53098;47.658;8.578;2023-07-24T02:40:51;12.60;;;5.78;;
66298;SDS011;53098;47.658;8.578;2023-07-24T02:43:17;12.02;;;5.78;;
66298;SDS011;53098;47.658;8.578;2023-07-24T02:45:42;13.52;;;5.72;;
66298;SDS011;53098;47.658;8.578;2023-07-24T02:48:08;12.07;;;5.40;;
66298;SDS011;53098;47.658;8.578;2023-07-24T02:50:33;12.88;;;5.63;;
66298;SDS011;53098;47.658;8.578;2023-07-24T02:52:58;13.68;;;5.53;;
66298;SDS011;53098;47.658;8.578;2023-07-24T02:55:24;10.85;;;5.22;;
66298;SDS011;53098;47.658;8.578;2023-07-24T02:57:49;11.38;;;4.72;;
66298;SDS011;53098;47.658;8.578;2023-07-24T03:00:16;11.18;;;5.65;;
66298;SDS011;53098;47.658;8.578;2023-07-24T03:02:41;10.57;;;4.95;;
66298;SDS011;53098;47.658;8.578;2023-07-24T03:05:07;11.25;;;5.18;;
66298;SDS011;53098;47.658;8.578;2023-07-24T03:07:33;12.10;;;5.68;;
66298;SDS011;53098;47.658;8.578;2023-07-24T03:09:58;13.55;;;5.32;;
66298;SDS011;53098;47.658;8.578;2023-07-24T03:12:24;14.27;;;5.90;;
66298;SDS011;53098;47.658;8.578;2023-07-24T03:14:49;13.60;;;5.43;;
66298;SDS011;53098;47.658;8.578;2023-07-24T03:17:15;13.07;;;5.45;;
66298;SDS011;53098;47.658;8.578;2023-07-24T03:19:41;12.45;;;5.45;;
66298;SDS011;53098;47.658;8.578;2023-07-24T03:22:06;12.90;;;5.45;;
66298;SDS011;53098;47.658;8.578;2023-07-24T03:24:32;13.70;;;5.32;;
66298;SDS011;53098;47.658;8.578;2023-07-24T03:26:58;11.95;;;4.75;;
66298;SDS011;53098;47.658;8.578;2023-07-24T03:29:23;13.25;;;5.80;;
66298;SDS011;53098;47.658;8.578;2023-07-24T03:31:49;10.82;;;4.80;;
66298;SDS011;53098;47.658;8.578;2023-07-24T03:34:14;13.15;;;5.30;;
66298;SDS011;53098;47.658;8.578;2023-07-24T03:36:42;11.75;;;4.78;;
66298;SDS011;53098;47.658;8.578;2023-07-24T03:39:11;11.35;;;4.88;;
66298;SDS011;53098;47.658;8.578;2023-07-24T03:41:37;13.65;;;5.05;;
66298;SDS011;53098;47.658;8.578;2023-07-24T03:44:03;10.35;;;4.72;;
66298;SDS011;53098;47.658;8.578;2023-07-24T03:46:29;10.98;;;4.80;;
66298;SDS011;53098;47.658;8.578;2023-07-24T03:48:54;10.93;;;4.80;;
66298;SDS011;53098;47.658;8.578;2023-07-24T03:51:20;13.32;;;5.78;;
66298;SDS011;53098;47.658;8.578;2023-07-24T03:53:45;11.95;;;5.43;;
66298;SDS011;53098;47.658;8.578;2023-07-24T03:56:11;11.68;;;5.57;;
66298;SDS011;53098;47.658;8.578;2023-07-24T03:58:37;12.25;;;5.10;;
66298;SDS011;53098;47.658;8.578;2023-07-24T04:01:02;11.35;;;5.53;;
66298;SDS011;53098;47.658;8.578;2023-07-24T04:03:28;13.60;;;5.22;;
66298;SDS011;53098;47.658;8.578;2023-07-24T04:05:53;13.10;;;6.00;;
66298;SDS011;53098;47.658;8.578;2023-07-24T04:08:19;11.45;;;5.30;;
66298;SDS011;53098;47.658;8.578;2023-07-24T04:10:44;13.00;;;5.18;;
66298;SDS011;53098;47.658;8.578;2023-07-24T04:13:10;14.75;;;5.70;;
66298;SDS011;53098;47.658;8.578;2023-07-24T04:15:35;11.32;;;5.38;;
66298;SDS011;53098;47.658;8.578;2023-07-24T04:18:00;16.05;;;5.75;;
66298;SDS011;53098;47.658;8.578;2023-07-24T04:20:26;13.13;;;5.90;;
66298;SDS011;53098;47.658;8.578;2023-07-24T04:22:51;10.05;;;4.82;;
66298;SDS011;53098;47.658;8.578;2023-07-24T04:25:17;13.57;;;5.85;;
66298;SDS011;53098;47.658;8.578;2023-07-24T04:27:42;12.60;;;5.32;;
66298;SDS011;53098;47.658;8.578;2023-07-24T04:30:08;13.98;;;6.15;;
66298;SDS011;53098;47.658;8.578;2023-07-24T04:32:33;15.95;;;6.07;;
66298;SDS011;53098;47.658;8.578;2023-07-24T04:34:59;12.90;;;6.10;;
66298;SDS011;53098;47.658;8.578;2023-07-24T04:37:24;11.60;;;6.00;;
66298;SDS011;53098;47.658;8.578;2023-07-24T04:39:49;13.55;;;6.65;;
66298;SDS011;53098;47.658;8.578;2023-07-24T04:42:15;12.75;;;6.10;;
66298;SDS011;53098;47.658;8.578;2023-07-24T04:44:40;12.45;;;5.55;;
66298;SDS011;53098;47.658;8.578;2023-07-24T04:47:06;15.43;;;6.30;;
66298;SDS011;53098;47.658;8.578;2023-07-24T04:49:31;14.63;;;5.93;;
66298;SDS011;53098;47.658;8.578;2023-07-24T04:51:56;13.90;;;5.72;;
66298;SDS011;53098;47.658;8.578;2023-07-24T04:54:22;13.48;;;6.40;;
66298;SDS011;53098;47.658;8.578;2023-07-24T04:56:47;16.00;;;6.75;;
66298;SDS011;53098;47.658;8.578;2023-07-24T04:59:13;13.77;;;5.65;;
66298;SDS011;53098;47.658;8.578;2023-07-24T05:01:38;15.02;;;6.25;;
66298;SDS011;53098;47.658;8.578;2023-07-24T05:04:04;13.45;;;5.90;;
66298;SDS011;53098;47.658;8.578;2023-07-24T05:06:29;14.93;;;6.13;;
66298;SDS011;53098;47.658;8.578;2023-07-24T05:08:54;12.77;;;5.82;;
66298;SDS011;53098;47.658;8.578;2023-07-24T05:11:20;17.55;;;6.10;;
66298;SDS011;53098;47.658;8.578;2023-07-24T05:13:45;12.75;;;6.50;;
66298;SDS011;53098;47.658;8.578;2023-07-24T05:16:11;13.48;;;6.38;;
66298;SDS011;53098;47.658;8.578;2023-07-24T05:18:36;12.77;;;5.70;;
66298;SDS011;53098;47.658;8.578;2023-07-24T05:21:02;17.33;;;6.75;;
66298;SDS011;53098;47.658;8.578;2023-07-24T05:23:27;14.23;;;5.85;;
66298;SDS011;53098;47.658;8.578;2023-07-24T05:26:11;11.98;;;5.72;;
66298;SDS011;53098;47.658;8.578;2023-07-24T05:28:36;12.80;;;5.82;;
66298;SDS011;53098;47.658;8.578;2023-07-24T05:31:02;14.98;;;6.25;;
66298;SDS011;53098;47.658;8.578;2023-07-24T05:33:29;12.35;;;5.57;;
66298;SDS011;53098;47.658;8.578;2023-07-24T05:35:58;11.57;;;5.95;;
66298;SDS011;53098;47.658;8.578;2023-07-24T05:38:25;13.77;;;5.82;;
66298;SDS011;53098;47.658;8.578;2023-07-24T05:41:09;13.57;;;5.95;;
66298;SDS011;53098;47.658;8.578;2023-07-24T05:43:34;15.57;;;5.50;;
66298;SDS011;53098;47.658;8.578;2023-07-24T05:45:59;11.85;;;5.30;;
66298;SDS011;53098;47.658;8.578;2023-07-24T05:48:25;11.98;;;5.50;;
66298;SDS011;53098;47.658;8.578;2023-07-24T05:50:50;10.93;;;4.95;;
66298;SDS011;53098;47.658;8.578;2023-07-24T05:53:16;13.38;;;6.20;;
66298;SDS011;53098;47.658;8.578;2023-07-24T05:55:42;12.65;;;5.65;;
66298;SDS011;53098;47.658;8.578;2023-07-24T05:58:08;14.43;;;5.55;;
66298;SDS011;53098;47.658;8.578;2023-07-24T06:00:34;12.38;;;5.55;;
66298;SDS011;53098;47.658;8.578;2023-07-24T06:02:59;13.57;;;5.10;;
66298;SDS011;53098;47.658;8.578;2023-07-24T06:05:25;12.70;;;5.30;;
66298;SDS011;53098;47.658;8.578;2023-07-24T06:07:50;11.98;;;5.25;;
66298;SDS011;53098;47.658;8.578;2023-07-24T06:10:15;11.55;;;5.10;;
66298;SDS011;53098;47.658;8.578;2023-07-24T06:12:41;11.93;;;4.88;;
66298;SDS011;53098;47.658;8.578;2023-07-24T06:15:06;11.32;;;4.95;;
66298;SDS011;53098;47.658;8.578;2023-07-24T06:17:32;10.82;;;4.60;;
66298;SDS011;53098;47.658;8.578;2023-07-24T06:19:58;12.13;;;5.50;;
66298;SDS011;53098;47.658;8.578;2023-07-24T06:22:24;15.88;;;5.35;;
66298;SDS011;53098;47.658;8.578;2023-07-24T06:24:49;12.30;;;5.18;;
66298;SDS011;53098;47.658;8.578;2023-07-24T06:27:15;11.45;;;6.22;;
66298;SDS011;53098;47.658;8.578;2023-07-24T06:29:41;11.85;;;5.45;;
66298;SDS011;53098;47.658;8.578;2023-07-24T06:32:06;13.07;;;5.70;;
66298;SDS011;53098;47.658;8.578;2023-07-24T06:34:32;13.40;;;5.63;;
66298;SDS011;53098;47.658;8.578;2023-07-24T06:36:58;14.40;;;5.13;;
66298;SDS011;53098;47.658;8.578;2023-07-24T06:39:23;11.63;;;4.82;;
66298;SDS011;53098;47.658;8.578;2023-07-24T06:41:51;12.45;;;5.38;;
66298;SDS011;53098;47.658;8.578;2023-07-24T06:44:19;12.75;;;5.50;;
66298;SDS011;53098;47.658;8.578;2023-07-24T06:46:44;11.55;;;5.45;;
66298;SDS011;53098;47.658;8.578;2023-07-24T06:49:10;9.95;;;4.32;;
66298;SDS011;53098;47.658;8.578;2023-07-24T06:51:35;13.07;;;4.47;;
66298;SDS011;53098;47.658;8.578;2023-07-24T06:54:01;11.15;;;4.43;;
66298;SDS011;53098;47.658;8.578;2023-07-24T06:56:27;11.57;;;4.15;;
66298;SDS011;53098;47.658;8.578;2023-07-24T06:58:53;9.32;;;4.07;;
66298;SDS011;53098;47.658;8.578;2023-07-24T07:01:19;10.57;;;3.95;;
66298;SDS011;53098;47.658;8.578;2023-07-24T07:03:45;10.38;;;4.75;;
66298;SDS011;53098;47.658;8.578;2023-07-24T07:06:11;13.40;;;3.95;;
66298;SDS011;53098;47.658;8.578;2023-07-24T07:08:37;9.77;;;4.25;;
66298;SDS011;53098;47.658;8.578;2023-07-24T07:11:02;9.30;;;4.40;;
66298;SDS011;53098;47.658;8.578;2023-07-24T07:13:28;10.45;;;4.70;;
66298;SDS011;53098;47.658;8.578;2023-07-24T07:15:55;11.82;;;4.50;;
66298;SDS011;53098;47.658;8.578;2023-07-24T07:18:26;9.90;;;4.15;;
66298;SDS011;53098;47.658;8.578;2023-07-24T07:20:53;11.73;;;4.47;;
66298;SDS011;53098;47.658;8.578;2023-07-24T07:23:19;13.43;;;4.57;;
66298;SDS011;53098;47.658;8.578;2023-07-24T07:25:46;10.48;;;4.18;;
66298;SDS011;53098;47.658;8.578;2023-07-24T07:28:15;10.35;;;4.25;;
66298;SDS011;53098;47.658;8.578;2023-07-24T07:30:42;9.20;;;3.55;;
66298;SDS011;53098;47.658;8.578;2023-07-24T07:33:08;11.27;;;4.43;;
66298;SDS011;53098;47.658;8.578;2023-07-24T07:35:38;8.88;;;4.00;;
66298;SDS011;53098;47.658;8.578;2023-07-24T07:38:04;12.00;;;3.85;;
66298;SDS011;53098;47.658;8.578;2023-07-24T07:40:29;10.35;;;3.75;;
66298;SDS011;53098;47.658;8.578;2023-07-24T07:42:56;12.30;;;4.53;;
66298;SDS011;53098;47.658;8.578;2023-07-24T07:45:23;9.77;;;4.28;;
66298;SDS011;53098;47.658;8.578;2023-07-24T07:47:49;11.93;;;4.32;;
66298;SDS011;53098;47.658;8.578;2023-07-24T07:50:18;9.05;;;3.78;;
66298;SDS011;53098;47.658;8.578;2023-07-24T07:52:50;10.65;;;3.97;;
66298;SDS011;53098;47.658;8.578;2023-07-24T07:55:18;9.18;;;3.78;;
66298;SDS011;53098;47.658;8.578;2023-07-24T07:57:44;9.23;;;3.80;;
66298;SDS011;53098;47.658;8.578;2023-07-24T08:00:13;9.57;;;4.15;;
66298;SDS011;53098;47.658;8.578;2023-07-24T08:02:40;11.18;;;4.38;;
66298;SDS011;53098;47.658;8.578;2023-07-24T08:05:07;10.38;;;4.35;;
66298;SDS011;53098;47.658;8.578;2023-07-24T08:07:35;11.25;;;4.25;;
66298;SDS011;53098;47.658;8.578;2023-07-24T08:10:01;11.10;;;4.28;;
66298;SDS011;53098;47.658;8.578;2023-07-24T08:12:28;9.80;;;3.97;;
66298;SDS011;53098;47.658;8.578;2023-07-24T08:14:54;12.23;;;4.32;;
66298;SDS011;53098;47.658;8.578;2023-07-24T08:17:21;9.32;;;4.55;;
66298;SDS011;53098;47.658;8.578;2023-07-24T08:19:47;10.82;;;4.43;;
66298;SDS011;53098;47.658;8.578;2023-07-24T08:22:13;13.73;;;5.22;;
66298;SDS011;53098;47.658;8.578;2023-07-24T08:24:38;11.73;;;4.63;;
66298;SDS011;53098;47.658;8.578;2023-07-24T08:27:04;11.35;;;3.97;;
66298;SDS011;53098;47.658;8.578;2023-07-24T08:29:30;11.27;;;4.38;;
66298;SDS011;53098;47.658;8.578;2023-07-24T08:31:56;10.52;;;4.00;;
66298;SDS011;53098;47.658;8.578;2023-07-24T08:34:22;9.02;;;4.00;;
66298;SDS011;53098;47.658;8.578;2023-07-24T08:36:48;12.27;;;4.10;;
66298;SDS011;53098;47.658;8.578;2023-07-24T08:39:19;10.70;;;4.70;;
66298;SDS011;53098;47.658;8.578;2023-07-24T08:41:44;10.10;;;4.22;;
66298;SDS011;53098;47.658;8.578;2023-07-24T08:44:10;11.93;;;4.22;;
66298;SDS011;53098;47.658;8.578;2023-07-24T08:46:36;8.77;;;3.97;;
66298;SDS011;53098;47.658;8.578;2023-07-24T08:49:02;9.10;;;3.78;;
66298;SDS011;53098;47.658;8.578;2023-07-24T08:51:28;9.43;;;4.00;;
66298;SDS011;53098;47.658;8.578;2023-07-24T08:53:55;9.38;;;4.30;;
66298;SDS011;53098;47.658;8.578;2023-07-24T08:56:21;13.48;;;3.85;;
66298;SDS011;53098;47.658;8.578;2023-07-24T08:58:47;10.70;;;3.70;;
66298;SDS011;53098;47.658;8.578;2023-07-24T09:01:12;9.38;;;3.60;;
66298;SDS011;53098;47.658;8.578;2023-07-24T09:03:38;9.82;;;4.00;;
66298;SDS011;53098;47.658;8.578;2023-07-24T09:06:03;10.20;;;4.15;;
66298;SDS011;53098;47.658;8.578;2023-07-24T09:08:32;9.75;;;4.00;;
66298;SDS011;53098;47.658;8.578;2023-07-24T09:10:59;9.52;;;4.10;;
66298;SDS011;53098;47.658;8.578;2023-07-24T09:13:26;13.65;;;4.38;;
66298;SDS011;53098;47.658;8.578;2023-07-24T09:15:51;8.68;;;3.90;;
66298;SDS011;53098;47.658;8.578;2023-07-24T09:18:17;9.75;;;4.38;;
66298;SDS011;53098;47.658;8.578;2023-07-24T09:20:43;10.95;;;4.50;;
66298;SDS011;53098;47.658;8.578;2023-07-24T09:23:09;10.05;;;4.13;;
66298;SDS011;53098;47.658;8.578;2023-07-24T09:25:36;11.82;;;4.30;;
66298;SDS011;53098;47.658;8.578;2023-07-24T09:28:12;9.27;;;4.70;;
66298;SDS011;53098;47.658;8.578;2023-07-24T09:30:39;10.18;;;4.30;;
66298;SDS011;53098;47.658;8.578;2023-07-24T09:33:05;9.77;;;4.03;;
66298;SDS011;53098;47.658;8.578;2023-07-24T09:35:31;11.55;;;4.25;;
66298;SDS011;53098;47.658;8.578;2023-07-24T09:38:03;8.32;;;3.38;;
66298;SDS011;53098;47.658;8.578;2023-07-24T09:40:37;10.60;;;4.18;;
66298;SDS011;53098;47.658;8.578;2023-07-24T09:43:16;12.98;;;4.55;;
66298;SDS011;53098;47.658;8.578;2023-07-24T09:45:52;12.38;;;4.28;;
66298;SDS011;53098;47.658;8.578;2023-07-24T09:48:19;9.63;;;4.05;;
66298;SDS011;53098;47.658;8.578;2023-07-24T09:50:46;11.30;;;4.25;;
66298;SDS011;53098;47.658;8.578;2023-07-24T09:56:05;9.95;;;4.43;;
66298;SDS011;53098;47.658;8.578;2023-07-24T09:58:36;9.98;;;4.07;;
66298;SDS011;53098;47.658;8.578;2023-07-24T10:01:03;11.35;;;4.38;;
66298;SDS011;53098;47.658;8.578;2023-07-24T10:03:30;11.32;;;4.18;;
66298;SDS011;53098;47.658;8.578;2023-07-24T10:05:58;10.35;;;3.90;;
66298;SDS011;53098;47.658;8.578;2023-07-24T10:08:25;11.00;;;4.45;;
66298;SDS011;53098;47.658;8.578;2023-07-24T10:10:51;10.07;;;4.38;;
66298;SDS011;53098;47.658;8.578;2023-07-24T10:13:16;8.40;;;3.60;;
66298;SDS011;53098;47.658;8.578;2023-07-24T10:15:42;10.38;;;3.90;;
66298;SDS011;53098;47.658;8.578;2023-07-24T10:18:09;12.10;;;4.28;;
66298;SDS011;53098;47.658;8.578;2023-07-24T10:20:35;8.27;;;3.78;;
66298;SDS011;53098;47.658;8.578;2023-07-24T10:23:02;8.13;;;3.38;;
66298;SDS011;53098;47.658;8.578;2023-07-24T10:25:29;8.73;;;3.70;;
66298;SDS011;53098;47.658;8.578;2023-07-24T10:27:55;9.60;;;3.85;;
66298;SDS011;53098;47.658;8.578;2023-07-24T10:30:28;9.43;;;3.80;;
66298;SDS011;53098;47.658;8.578;2023-07-24T10:32:53;9.02;;;3.97;;
66298;SDS011;53098;47.658;8.578;2023-07-24T10:35:41;8.48;;;3.58;;
66298;SDS011;53098;47.658;8.578;2023-07-24T10:38:08;11.00;;;4.38;;
66298;SDS011;53098;47.658;8.578;2023-07-24T10:40:33;9.68;;;4.43;;
66298;SDS011;53098;47.658;8.578;2023-07-24T10:43:09;9.70;;;3.92;;
66298;SDS011;53098;47.658;8.578;2023-07-24T10:48:07;11.57;;;3.90;;
66298;SDS011;53098;47.658;8.578;2023-07-24T10:50:43;9.23;;;4.35;;
66298;SDS011;53098;47.658;8.578;2023-07-24T10:53:10;11.02;;;3.72;;
66298;SDS011;53098;47.658;8.578;2023-07-24T10:55:38;9.00;;;3.35;;
66298;SDS011;53098;47.658;8.578;2023-07-24T10:58:03;11.27;;;2.55;;
66298;SDS011;53098;47.658;8.578;2023-07-24T11:00:29;6.25;;;2.70;;
66298;SDS011;53098;47.658;8.578;2023-07-24T11:02:55;10.77;;;2.70;;
66298;SDS011;53098;47.658;8.578;2023-07-24T11:05:21;9.30;;;2.47;;
66298;SDS011;53098;47.658;8.578;2023-07-24T11:07:48;8.38;;;3.15;;
66298;SDS011;53098;47.658;8.578;2023-07-24T11:10:17;11.95;;;3.30;;
66298;SDS011;53098;47.658;8.578;2023-07-24T11:12:44;7.72;;;2.63;;
66298;SDS011;53098;47.658;8.578;2023-07-24T11:15:10;5.90;;;2.33;;
66298;SDS011;53098;47.658;8.578;2023-07-24T11:17:36;8.40;;;2.67;;
66298;SDS011;53098;47.658;8.578;2023-07-24T11:20:07;7.55;;;2.42;;
66298;SDS011;53098;47.658;8.578;2023-07-24T11:22:34;6.63;;;1.92;;
66298;SDS011;53098;47.658;8.578;2023-07-24T11:24:59;8.80;;;2.50;;
66298;SDS011;53098;47.658;8.578;2023-07-24T11:27:25;8.55;;;2.47;;
66298;SDS011;53098;47.658;8.578;2023-07-24T11:29:50;6.40;;;2.38;;
66298;SDS011;53098;47.658;8.578;2023-07-24T11:32:19;11.25;;;2.72;;
66298;SDS011;53098;47.658;8.578;2023-07-24T11:34:46;9.25;;;3.30;;
66298;SDS011;53098;47.658;8.578;2023-07-24T11:37:13;7.25;;;2.30;;
66298;SDS011;53098;47.658;8.578;2023-07-24T11:39:38;6.18;;;2.22;;
66298;SDS011;53098;47.658;8.578;2023-07-24T11:42:04;9.13;;;2.72;;
66298;SDS011;53098;47.658;8.578;2023-07-24T11:44:30;11.02;;;2.75;;
66298;SDS011;53098;47.658;8.578;2023-07-24T11:47:05;9.20;;;2.65;;
66298;SDS011;53098;47.658;8.578;2023-07-24T11:49:31;6.57;;;2.38;;
66298;SDS011;53098;47.658;8.578;2023-07-24T11:52:04;7.90;;;2.45;;
66298;SDS011;53098;47.658;8.578;2023-07-24T11:54:33;6.97;;;2.40;;
66298;SDS011;53098;47.658;8.578;2023-07-24T11:56:59;6.57;;;2.28;;
66298;SDS011;53098;47.658;8.578;2023-07-24T11:59:24;8.43;;;2.55;;
66298;SDS011;53098;47.658;8.578;2023-07-24T12:01:50;7.90;;;2.75;;
66298;SDS011;53098;47.658;8.578;2023-07-24T12:04:16;7.38;;;2.80;;
66298;SDS011;53098;47.658;8.578;2023-07-24T12:06:41;10.43;;;2.65;;
66298;SDS011;53098;47.658;8.578;2023-07-24T12:09:07;7.55;;;2.72;;
66298;SDS011;53098;47.658;8.578;2023-07-24T12:11:33;6.53;;;2.58;;
66298;SDS011;53098;47.658;8.578;2023-07-24T12:13:59;7.78;;;2.88;;
66298;SDS011;53098;47.658;8.578;2023-07-24T12:16:24;6.53;;;2.75;;
66298;SDS011;53098;47.658;8.578;2023-07-24T12:18:50;8.10;;;2.67;;
66298;SDS011;53098;47.658;8.578;2023-07-24T12:21:15;6.80;;;2.58;;
66298;SDS011;53098;47.658;8.578;2023-07-24T12:23:41;7.60;;;2.35;;
66298;SDS011;53098;47.658;8.578;2023-07-24T12:26:06;6.88;;;2.97;;
66298;SDS011;53098;47.658;8.578;2023-07-24T12:28:32;7.35;;;2.80;;
66298;SDS011;53098;47.658;8.578;2023-07-24T12:30:57;5.60;;;1.95;;
66298;SDS011;53098;47.658;8.578;2023-07-24T12:33:23;8.35;;;2.30;;
66298;SDS011;53098;47.658;8.578;2023-07-24T12:35:48;8.20;;;2.15;;
66298;SDS011;53098;47.658;8.578;2023-07-24T12:38:14;6.38;;;2.33;;
66298;SDS011;53098;47.658;8.578;2023-07-24T12:40:39;5.63;;;2.13;;
66298;SDS011;53098;47.658;8.578;2023-07-24T12:43:05;6.25;;;2.30;;
66298;SDS011;53098;47.658;8.578;2023-07-24T12:45:30;7.10;;;2.25;;
66298;SDS011;53098;47.658;8.578;2023-07-24T12:47:56;5.80;;;2.15;;
66298;SDS011;53098;47.658;8.578;2023-07-24T12:50:21;6.05;;;2.20;;
66298;SDS011;53098;47.658;8.578;2023-07-24T12:52:47;6.72;;;2.00;;
66298;SDS011;53098;47.658;8.578;2023-07-24T12:55:12;6.10;;;2.00;;
66298;SDS011;53098;47.658;8.578;2023-07-24T12:57:38;7.20;;;2.47;;
66298;SDS011;53098;47.658;8.578;2023-07-24T13:00:03;7.10;;;2.75;;
66298;SDS011;53098;47.658;8.578;2023-07-24T13:02:29;6.00;;;2.35;;
66298;SDS011;53098;47.658;8.578;2023-07-24T13:04:55;7.05;;;2.50;;
66298;SDS011;53098;47.658;8.578;2023-07-24T13:07:20;6.50;;;2.35;;
66298;SDS011;53098;47.658;8.578;2023-07-24T13:09:45;5.55;;;1.95;;
66298;SDS011;53098;47.658;8.578;2023-07-24T13:12:11;6.60;;;2.15;;
66298;SDS011;53098;47.658;8.578;2023-07-24T13:14:36;6.22;;;1.92;;
66298;SDS011;53098;47.658;8.578;2023-07-24T13:17:02;4.97;;;2.20;;
66298;SDS011;53098;47.658;8.578;2023-07-24T13:19:27;5.05;;;1.95;;
66298;SDS011;53098;47.658;8.578;2023-07-24T13:21:53;4.55;;;1.70;;
66298;SDS011;53098;47.658;8.578;2023-07-24T13:24:18;8.40;;;2.28;;
66298;SDS011;53098;47.658;8.578;2023-07-24T13:26:43;6.65;;;2.25;;
66298;SDS011;53098;47.658;8.578;2023-07-24T13:29:09;6.18;;;1.92;;
66298;SDS011;53098;47.658;8.578;2023-07-24T13:31:34;4.88;;;1.80;;
66298;SDS011;53098;47.658;8.578;2023-07-24T13:34:01;6.25;;;2.17;;
66298;SDS011;53098;47.658;8.578;2023-07-24T13:36:26;5.82;;;1.92;;
66298;SDS011;53098;47.658;8.578;2023-07-24T13:38:52;5.43;;;2.03;;
66298;SDS011;53098;47.658;8.578;2023-07-24T13:41:17;5.10;;;1.95;;
66298;SDS011;53098;47.658;8.578;2023-07-24T13:43:43;6.05;;;1.90;;
66298;SDS011;53098;47.658;8.578;2023-07-24T13:46:08;5.03;;;2.15;;
66298;SDS011;53098;47.658;8.578;2023-07-24T13:48:34;7.38;;;2.38;;
66298;SDS011;53098;47.658;8.578;2023-07-24T13:50:59;6.10;;;1.98;;
66298;SDS011;53098;47.658;8.578;2023-07-24T13:53:25;6.05;;;2.08;;
66298;SDS011;53098;47.658;8.578;2023-07-24T13:55:50;4.15;;;1.80;;
66298;SDS011;53098;47.658;8.578;2023-07-24T13:58:16;4.70;;;1.85;;
66298;SDS011;53098;47.658;8.578;2023-07-24T14:00:41;5.78;;;2.10;;
66298;SDS011;53098;47.658;8.578;2023-07-24T14:03:07;5.85;;;2.15;;
66298;SDS011;53098;47.658;8.578;2023-07-24T14:05:35;7.13;;;2.33;;
66298;SDS011;53098;47.658;8.578;2023-07-24T14:08:01;7.15;;;2.10;;
66298;SDS011;53098;47.658;8.578;2023-07-24T14:10:26;5.90;;;1.95;;
66298;SDS011;53098;47.658;8.578;2023-07-24T14:12:52;6.97;;;2.30;;
66298;SDS011;53098;47.658;8.578;2023-07-24T14:15:17;4.70;;;1.95;;
66298;SDS011;53098;47.658;8.578;2023-07-24T14:17:42;6.70;;;2.25;;
66298;SDS011;53098;47.658;8.578;2023-07-24T14:20:08;8.57;;;2.55;;
66298;SDS011;53098;47.658;8.578;2023-07-24T14:22:34;5.97;;;2.20;;
66298;SDS011;53098;47.658;8.578;2023-07-24T14:24:59;6.43;;;2.30;;
66298;SDS011;53098;47.658;8.578;2023-07-24T14:27:25;6.72;;;2.15;;
66298;SDS011;53098;47.658;8.578;2023-07-24T14:29:50;6.60;;;2.13;;
66298;SDS011;53098;47.658;8.578;2023-07-24T14:32:15;8.50;;;2.65;;
66298;SDS011;53098;47.658;8.578;2023-07-24T14:34:41;5.57;;;1.83;;
66298;SDS011;53098;47.658;8.578;2023-07-24T14:37:07;6.40;;;1.85;;
66298;SDS011;53098;47.658;8.578;2023-07-24T14:39:32;5.30;;;2.20;;
66298;SDS011;53098;47.658;8.578;2023-07-24T14:41:58;5.75;;;1.80;;
66298;SDS011;53098;47.658;8.578;2023-07-24T14:44:23;6.95;;;2.08;;